Latest Weather Observations for Mount Buller

IDV60801

Issued at 4:42 pm EDT Sunday 28 February 2021 (issued every 10 minutes, with the page automatically refreshed every 10 minutes)

About weather observations | Map of weather stations | Latest weather observations for VIC | Other Formats
Station Details ID: 083024 Name: MOUNT BULLER Lat: -37.15 Lon: 146.44 Height: 1707.0 m
Data from the previous 72 hours. | See also: Recent months at Mount Buller
Date/Time
EDT
Temp
°C
App
Temp
°C
Dew
Point
°C
Rel
Hum
%
Delta-T
°C
Wind Press
QNH
hPa
Press
MSL
hPa
Rain since
9am
mm
Dir  Spd
km/h
Gust
km/h
Spd
kts
Gust
kts
28/04:30pm 15.0 11.4 5.2 52 5.1 W 13 20 7 11 - - 0.0
28/04:00pm 14.8 10.7 4.5 50 5.3 WSW 15 30 8 16 - - 0.0
28/03:30pm 14.7 9.9 5.5 54 4.8 WSW 20 30 11 16 - - 0.0
28/03:00pm 14.9 10.3 5.4 53 4.9 W 19 28 10 15 - - 0.0
28/02:30pm 14.3 10.2 6.4 59 4.2 WSW 17 28 9 15 - - 0.0
28/02:00pm 14.4 8.8 5.5 55 4.6 WSW 24 33 13 18 - - 0.0
28/01:30pm 15.2 10.9 7.0 58 4.4 SW 19 30 10 16 - - 0.0
28/01:00pm 14.4 8.9 6.0 57 4.4 WSW 24 32 13 17 - - 0.0
28/12:30pm 14.1 8.9 5.5 56 4.5 WSW 22 35 12 19 - - 0.0
28/12:00pm 13.6 8.8 5.7 59 4.1 SW 20 33 11 18 - - 0.0
28/11:30am 12.9 7.8 4.3 56 4.3 SSW 20 32 11 17 - - 0.0
28/11:00am 12.6 7.2 4.6 58 4.0 SW 22 35 12 19 - - 0.0
28/10:30am 12.3 7.4 4.0 57 4.1 SSW 19 30 10 16 - - 0.0
28/10:00am 12.1 5.8 3.6 56 4.2 SW 26 44 14 24 - - 0.0
28/09:30am 11.3 5.2 2.9 56 4.0 SW 24 41 13 22 - - 0.0
28/09:00am 10.8 3.7 1.6 53 4.3 SW 28 44 15 24 - - 0.0
28/08:30am 10.2 3.4 0.5 51 4.4 WSW 26 39 14 21 - - 0.0
28/08:00am 9.4 2.2 -2.2 44 4.9 WSW 26 35 14 19 - - 0.0
28/07:30am 8.9 1.0 -1.8 47 4.5 W 30 43 16 23 - - 0.0
28/07:00am 7.4 0.4 -3.4 46 4.4 W 24 33 13 18 - - 0.0
28/06:30am 6.6 -0.1 -1.1 58 3.3 W 24 30 13 16 - - 0.0
28/06:00am 6.3 -1.6 -5.0 44 4.3 W 28 37 15 20 - - 0.0
28/05:30am 7.2 -0.3 -4.8 42 4.7 W 26 33 14 18 - - 0.0
28/05:00am 7.5 0.1 -3.6 45 4.5 W 26 35 14 19 - - 0.0
28/04:30am 7.6 -0.3 -4.5 42 4.8 WNW 28 41 15 22 - - 0.0
28/04:00am 8.1 -0.8 -7.2 33 5.7 WNW 32 43 17 23 - - 0.0
28/03:30am 7.9 0.2 0.2 58 3.4 WNW 30 37 16 20 - - 0.0
28/03:00am 7.0 0.8 2.1 71 2.2 W 24 32 13 17 - - 0.0
28/02:30am 7.0 0.1 2.3 72 2.2 W 28 33 15 18 - - 0.0
28/02:00am 7.3 0.1 0.5 62 3.0 W 28 37 15 20 - - 0.0
28/01:30am 7.8 0.3 -8.7 30 5.9 WNW 24 32 13 17 - - 0.0
28/01:00am 8.5 1.7 -9.9 26 6.4 WNW 20 26 11 14 - - 0.0
28/12:30am 6.9 0.2 -8.2 33 5.4 W 20 24 11 13 - - 0.0
28/12:00am 6.7 2.4 1.2 68 2.5 NNW 13 17 7 9 - - 0.0
 
Date/Time
EDT
Temp
°C
App
Temp
°C
Dew
Point
°C
Rel
Hum
%
Delta-T
°C
Wind Press
QNH
hPa
Press
MSL
hPa
Rain since
9am
mm
Dir  Spd
km/h
Gust
km/h
Spd
kts
Gust
kts
27/11:30pm 8.0 4.4 -1.8 50 4.1 NNW 7 9 4 5 - - 0.0
27/11:00pm 7.6 4.2 -0.8 55 3.6 NNW 7 9 4 5 - - 0.0
27/10:30pm 7.9 5.2 3.6 74 2.0 NNW 7 9 4 5 - - 0.0
27/10:00pm 8.5 6.7 1.4 61 3.2 CALM 0 0 0 0 - - 0.0
27/09:30pm 8.1 6.9 4.5 78 1.8 CALM 0 0 0 0 - - 0.0
27/09:00pm 7.2 6.1 5.0 86 1.1 CALM 0 0 0 0 - - 0.0
27/08:30pm 7.3 6.2 5.1 86 1.1 CALM 0 0 0 0 - - 0.0
27/08:00pm 6.6 3.6 3.9 83 1.3 NNW 9 15 5 8 - - 0.0
27/07:30pm 7.7 4.5 5.3 85 1.2 N 11 15 6 8 - - 0.0
27/07:00pm 8.6 5.5 5.7 82 1.5 N 11 15 6 8 - - 0.0
27/06:30pm 9.1 6.0 5.7 79 1.7 NNW 11 17 6 9 - - 0.0
27/06:00pm 9.7 6.3 5.9 77 1.9 NNW 13 20 7 11 - - 0.0
27/05:30pm 10.2 8.0 6.2 76 2.1 NNW 7 13 4 7 - - 0.0
27/05:00pm 11.7 9.0 7.2 74 2.4 NNW 11 19 6 10 - - 0.0
27/04:30pm 12.5 9.3 7.0 69 2.9 NNE 13 20 7 11 - - 0.0
27/04:00pm 11.6 7.9 6.5 71 2.7 N 15 20 8 11 - - 0.0
27/03:30pm 10.6 6.5 6.0 73 2.4 NNW 17 26 9 14 - - 0.0
27/03:00pm 11.7 8.6 -0.1 44 5.3 NNW 6 11 3 6 - - 0.0
27/02:30pm 11.8 8.0 3.8 58 3.9 NNW 13 20 7 11 - - 0.0
27/02:00pm 11.0 7.4 4.9 66 3.1 NNW 13 26 7 14 - - 0.0
27/01:30pm 10.8 6.4 4.9 67 3.0 NNW 17 24 9 13 - - 0.0
27/01:00pm 10.5 5.6 4.2 65 3.1 N 19 30 10 16 - - 0.0
27/12:30pm 10.0 5.7 5.4 73 2.3 N 17 22 9 12 - - 0.0
27/12:00pm 9.2 4.5 3.0 65 2.9 NNW 17 22 9 12 - - 0.0
27/11:30am 10.1 4.2 2.0 57 3.8 NNW 22 33 12 18 - - 0.0
27/11:00am 9.5 4.6 1.7 58 3.6 NNW 17 24 9 13 - - 0.0
27/10:30am 9.4 3.6 2.3 61 3.3 NNW 22 26 12 14 - - 0.0
27/10:00am 8.7 2.0 1.6 61 3.3 NNW 26 30 14 16 - - 0.0
27/09:30am 8.5 2.3 0.0 55 3.8 NNW 22 28 12 15 - - 0.0
27/09:00am 8.2 2.6 -0.3 55 3.7 NNW 19 24 10 13 - - 0.0
27/08:30am 8.3 3.1 -2.6 46 4.5 NNW 15 22 8 12 - - 0.0
27/08:00am 7.8 1.2 -0.2 57 3.5 N 24 37 13 20 - - 0.0
27/07:30am 7.6 0.7 0.3 60 3.2 NNE 26 37 14 20 - - 0.0
27/07:00am 8.0 -0.7 -0.2 56 3.6 NNE 35 54 19 29 - - 0.0
27/06:56am 8.2 0.1 -0.5 54 3.8 NNE 32 54 17 29 - - 0.0
27/06:30am 7.8 1.3 0.1 58 3.4 NNE 24 33 13 18 - - 0.0
27/06:00am 7.9 1.0 -0.1 57 3.5 N 26 33 14 18 - - 0.0
27/05:30am 7.9 0.7 0.4 59 3.3 NNE 28 35 15 19 - - 0.0
27/05:00am 7.9 0.7 0.4 59 3.3 NNE 28 33 15 18 - - 0.0
27/04:30am 8.1 1.3 0.8 60 3.3 NNE 26 33 14 18 - - 0.0
27/04:00am 8.4 2.4 0.9 59 3.4 N 22 33 12 18 - - 0.0
27/03:30am 8.5 3.1 1.2 60 3.3 NNE 19 28 10 15 - - 0.0
27/03:00am 8.6 2.1 2.4 65 2.9 NNE 26 33 14 18 - - 0.0
27/02:30am 9.2 1.9 2.5 63 3.1 NNE 30 37 16 20 - - 0.0
27/02:00am 9.6 1.8 2.0 59 3.5 NNE 32 43 17 23 - - 0.0
27/01:30am 9.6 7.1 3.8 67 2.8 NNE 6 26 3 14 - - 0.0
27/01:00am 9.2 7.2 4.2 71 2.4 NNE 4 30 2 16 - - 0.0
27/12:30am 9.1 4.2 4.9 75 2.1 NNE 20 30 11 16 - - 0.0
27/12:00am 9.4 3.5 5.8 78 1.8 NNE 26 35 14 19 - - 0.0
 
Date/Time
EDT
Temp
°C
App
Temp
°C
Dew
Point
°C
Rel
Hum
%
Delta-T
°C
Wind Press
QNH
hPa
Press
MSL
hPa
Rain since
9am
mm
Dir  Spd
km/h
Gust
km/h
Spd
kts
Gust
kts
26/11:30pm 9.0 4.4 5.7 80 1.7 NNE 19 26 10 14 - - 0.0
26/11:00pm 8.8 6.1 5.5 80 1.7 NNE 9 22 5 12 - - 0.0
26/10:30pm 8.3 4.4 5.2 81 1.5 NNE 15 20 8 11 - - 0.0
26/10:00pm 8.2 6.0 5.3 82 1.4 NNE 6 17 3 9 - - 0.0
26/09:30pm 8.2 7.2 5.5 83 1.3 CALM 0 0 0 0 - - 0.0
26/09:00pm 8.2 5.9 5.8 85 1.2 NNE 7 20 4 11 - - 0.0
26/08:30pm 8.8 7.9 5.9 82 1.5 CALM 0 0 0 0 - - 0.0
26/08:00pm 9.4 8.4 5.8 78 1.8 CALM 0 0 0 0 - - 0.0
26/07:30pm 10.3 9.4 6.1 75 2.2 CALM 0 0 0 0 - - 0.0
26/07:00pm 11.6 10.8 6.7 72 2.6 CALM 0 0 0 0 - - 0.0
26/06:30pm 12.6 11.9 6.9 68 3.0 CALM 0 0 0 0 - - 0.0
26/06:00pm 13.0 12.2 6.4 64 3.5 CALM 0 0 0 0 - - 0.0
26/05:30pm 13.5 12.8 6.8 64 3.6 CALM 0 0 0 0 - - 0.0
26/05:00pm 13.6 12.8 6.7 63 3.7 CALM 0 0 0 0 - - 0.0
26/04:30pm 13.6 12.6 5.7 59 4.1 CALM 0 0 0 0 - - 0.0
26/04:00pm 13.9 13.1 6.5 61 3.9 CALM 0 0 0 0 - - 0.0
26/03:30pm 14.2 13.5 6.8 61 3.9 CALM 0 0 0 0 - - 0.0
26/03:00pm 13.8 13.1 7.1 64 3.6 CALM 0 0 0 0 - - 0.0
26/02:30pm 12.5 11.6 6.1 65 3.3 CALM 0 0 0 0 - - 0.0
26/02:00pm 12.5 11.8 7.0 69 2.9 CALM 0 0 0 0 - - 0.0
26/01:30pm 12.4 11.3 5.1 61 3.7 CALM 0 0 0 0 - - 0.0
26/01:00pm 12.2 11.1 5.1 62 3.6 CALM 0 0 0 0 - - 0.0
26/12:30pm 11.4 10.3 5.1 65 3.2 CALM 0 0 0 0 - - 0.0
26/12:00pm 11.0 9.9 4.9 66 3.1 CALM 0 0 0 0 - - 0.0
26/11:30am 11.1 10.1 5.4 68 2.9 CALM 0 0 0 0 - - 0.0
26/11:00am 9.1 8.1 5.8 80 1.7 CALM 0 0 0 0 - - 0.0
26/10:30am 10.0 8.3 1.9 57 3.8 CALM 0 0 0 0 - - 0.0
26/10:00am 9.9 6.8 -10.8 22 7.2 CALM 0 0 0 0 - - 0.0
26/09:30am 9.4 5.9 -16.7 14 7.9 CALM 0 0 0 0 - - 0.0
26/09:00am 8.8 4.6 -10.1 25 6.6 W 6 17 3 9 - - 0.0
26/08:30am 7.3 1.2 -12.4 23 6.4 - 15 24 8 13 - - 0.0
26/08:00am 5.6 -1.2 -9.4 33 5.1 W 20 30 11 16 - - 0.0
26/07:30am 3.8 -2.9 -4.4 55 3.1 W 22 30 12 16 - - 0.0
26/07:00am 2.9 -2.4 2.8 99 0.0 W 20 30 11 16 - - 0.0
26/06:30am 3.3 -1.4 3.2 99 0.0 W 17 30 9 16 - - 0.0
26/06:00am 3.4 -2.2 3.3 99 0.0 W 22 33 12 18 - - 0.0
26/05:30am 2.9 0.6 2.8 99 0.0 WSW 4 20 2 11 - - 0.0
26/05:00am 3.7 -1.5 3.6 99 0.0 WNW 20 30 11 16 - - 0.0
26/04:30am 3.9 0.5 3.8 99 0.0 SW 11 17 6 9 - - 0.0
26/04:00am 4.4 3.1 4.3 99 0.0 CALM 0 0 0 0 - - 0.0
26/03:30am 4.8 2.9 4.7 99 0.0 - 4 17 2 9 - - 0.0
26/03:00am 5.0 0.2 4.9 99 0.0 SW 19 30 10 16 - - 0.0
26/02:30am 5.2 1.6 5.1 99 0.0 W 13 22 7 12 - - 0.0
26/02:00am 5.2 2.0 5.1 99 0.0 WSW 11 17 6 9 - - 0.0
26/01:30am 5.5 1.2 5.4 99 0.0 WSW 17 26 9 14 - - 0.0
26/01:00am 5.5 1.2 5.4 99 0.0 WSW 17 26 9 14 - - 0.0
26/12:30am 5.8 2.0 5.7 99 0.0 WSW 15 24 8 13 - - 0.0
26/12:00am 5.9 2.9 5.8 99 0.0 WSW 11 20 6 11 - - 0.0
 
Date/Time
EDT
Temp
°C
App
Temp
°C
Dew
Point
°C
Rel
Hum
%
Delta-T
°C
Wind Press
QNH
hPa
Press
MSL
hPa
Rain since
9am
mm
Dir  Spd
km/h
Gust
km/h
Spd
kts
Gust
kts
25/11:30pm 6.1 5.2 6.0 99 0.0 CALM 0 0 0 0 - - 0.0
25/11:00pm 6.4 2.0 5.0 91 0.7 WSW 17 22 9 12 - - 0.0
25/10:30pm 6.8 3.0 3.8 81 1.4 SW 13 19 7 10 - - 0.0
25/10:00pm 7.0 2.3 3.3 77 1.7 WSW 17 20 9 11 - - 0.0
25/09:30pm 7.3 2.2 2.8 73 2.1 WSW 19 26 10 14 - - 0.0
25/09:00pm 7.1 1.9 2.4 72 2.2 WSW 19 22 10 12 - - 0.0
25/08:30pm 7.4 2.6 2.5 71 2.3 W 17 24 9 13 - - 0.0
25/08:00pm 7.9 3.4 2.0 66 2.7 W 15 22 8 12 - - 0.0
25/07:30pm 9.3 3.5 0.2 53 4.1 WNW 20 39 11 21 - - 0.0
25/07:00pm 10.0 3.7 -1.1 46 4.8 WNW 22 39 12 21 - - 0.0
25/06:30pm 10.8 5.5 -0.9 44 5.2 WNW 17 35 9 19 - - 0.0
25/06:00pm 11.6 6.7 -0.2 44 5.3 NW 15 33 8 18 - - 0.0
25/05:30pm 11.9 7.0 -0.3 43 5.5 NW 15 28 8 15 - - 0.0
25/05:00pm 12.0 8.0 0.8 46 5.2 NNW 11 30 6 16 - - 0.0

Other formats

Comma delimited format used in spreadsheet applications
http://www.bom.gov.au/fwo/IDV60801/IDV60801.94894.axf

JavaScript Object Notation format (JSON) in row-major order
http://www.bom.gov.au/fwo/IDV60801/IDV60801.94894.json

Data quality

Most of these data are generated automatically and are frequently updated. Quality checks on data are not normally performed. It is possible for incorrect values to appear. Refer to information at About Latest Weather Observations and please check the disclaimer before using these data.